createdAt,value
2023-04-02T00:02:23.755Z,101203.91
2023-04-02T00:05:30.595Z,101209.09
2023-04-02T00:08:21.330Z,101207.22
2023-04-02T00:10:51.721Z,101215.88
2023-04-02T00:13:25.835Z,101213.28
2023-04-02T00:15:58.037Z,101207.16
2023-04-02T00:18:26.460Z,101223.59
2023-04-02T00:21:31.094Z,101227.13
2023-04-02T00:24:02.013Z,101228.97
2023-04-02T00:26:41.464Z,101230.66
2023-04-02T00:29:12.456Z,101244.47
2023-04-02T00:31:44.235Z,101253.09
2023-04-02T00:34:21.156Z,101241.03
2023-04-02T00:36:50.312Z,101251.31
2023-04-02T00:39:25.323Z,101266.16
2023-04-02T00:42:05.091Z,101264.31
2023-04-02T00:44:35.488Z,101270.31
2023-04-02T00:47:14.951Z,101272.34
2023-04-02T00:49:43.098Z,101280.72
2023-04-02T00:52:14.384Z,101279.78
2023-04-02T00:54:57.584Z,101297.97
2023-04-02T00:57:28.302Z,101289.38
2023-04-02T01:00:21.375Z,101301.47
2023-04-02T01:03:16.347Z,101313.63
2023-04-02T01:05:46.717Z,101304.41
2023-04-02T01:08:18.593Z,101309.41
2023-04-02T01:11:23.379Z,101321.53
2023-04-02T01:14:18.480Z,101314.53
2023-04-02T01:17:01.605Z,101316.97
2023-04-02T01:20:00.956Z,101312.06
2023-04-02T01:22:49.396Z,101320.28
2023-04-02T01:25:21.658Z,101330.84
2023-04-02T01:27:58.083Z,101339.31
2023-04-02T01:30:26.178Z,101343.25
2023-04-02T01:32:55.492Z,101348.06
2023-04-02T01:35:24.689Z,101354.72
2023-04-02T01:38:04.928Z,101354.19
2023-04-02T01:40:39.738Z,101359.09
2023-04-02T01:43:25.971Z,101368.41
2023-04-02T01:45:53.566Z,101368.50
2023-04-02T01:48:24.908Z,101371.22
2023-04-02T01:50:55.934Z,101367.06
2023-04-02T01:53:28.147Z,101387.72
2023-04-02T01:55:59.405Z,101364.34
2023-04-02T01:58:33.500Z,101386.34
2023-04-02T02:01:05.888Z,101396.03
2023-04-02T02:03:34.275Z,101404.13
2023-04-02T02:06:03.504Z,101394.75
2023-04-02T02:08:41.108Z,101402.50
2023-04-02T02:11:15.337Z,101412.03
2023-04-02T02:13:58.448Z,101411.75
2023-04-02T02:16:28.275Z,101420.47
2023-04-02T02:19:04.293Z,101418.88
2023-04-02T02:21:47.998Z,101428.66
2023-04-02T02:24:24.249Z,101427.19
2023-04-02T02:27:22.475Z,101430.59
2023-04-02T02:29:57.069Z,101441.81
2023-04-02T02:32:30.253Z,101443.13
2023-04-02T02:35:33.556Z,101441.50
2023-04-02T02:38:24.996Z,101458.41
2023-04-02T02:40:58.153Z,101464.03
2023-04-02T02:43:27.535Z,101459.59
2023-04-02T02:45:56.869Z,101477.69
2023-04-02T02:48:36.017Z,101464.38
2023-04-02T02:51:08.817Z,101485.63
2023-04-02T02:53:47.532Z,101491.53
2023-04-02T02:56:15.508Z,101488.84
2023-04-02T02:58:43.111Z,101502.59
2023-04-02T03:01:11.452Z,101491.03
2023-04-02T03:03:40.514Z,101507.63
2023-04-02T03:06:12.021Z,101508.06
2023-04-02T03:08:48.230Z,101519.44
2023-04-02T03:11:28.244Z,101516.75
2023-04-02T03:14:04.606Z,101527.69
2023-04-02T03:16:46.684Z,101525.69
2023-04-02T03:19:29.064Z,101556.72
2023-04-02T03:22:07.710Z,101552.88
2023-04-02T03:24:43.081Z,101548.66
2023-04-02T03:27:22.403Z,101558.56
2023-04-02T03:30:07.018Z,101571.00
2023-04-02T03:32:39.394Z,101562.03
2023-04-02T03:35:21.781Z,101580.28
2023-04-02T03:38:24.568Z,101584.22
2023-04-02T03:41:07.168Z,101590.22
2023-04-02T03:43:38.132Z,101584.72
2023-04-02T03:46:31.832Z,101591.97
2023-04-02T03:49:04.901Z,101599.16
2023-04-02T03:51:39.897Z,101610.19
2023-04-02T03:54:14.722Z,101617.09
2023-04-02T03:56:42.384Z,101618.13
2023-04-02T03:59:21.954Z,101627.00
2023-04-02T04:01:58.894Z,101621.25
2023-04-02T04:04:29.912Z,101640.00
2023-04-02T04:06:59.160Z,101641.72
2023-04-02T04:09:32.744Z,101643.66
2023-04-02T04:12:21.933Z,101647.00
2023-04-02T04:15:44.899Z,101649.72
2023-04-02T04:18:34.876Z,101651.69
2023-04-02T04:21:06.496Z,101671.50
2023-04-02T04:23:37.914Z,101674.88
2023-04-02T04:26:19.875Z,101682.50
2023-04-02T04:29:12.409Z,101690.19
2023-04-02T04:31:46.868Z,101689.13
2023-04-02T04:34:20.216Z,101697.63
2023-04-02T04:37:02.803Z,101703.19
2023-04-02T04:39:41.988Z,101706.19
2023-04-02T04:42:19.564Z,101715.16
2023-04-02T04:45:14.461Z,101714.41
2023-04-02T04:48:06.136Z,101727.63
2023-04-02T04:51:00.910Z,101719.28
2023-04-02T04:53:30.537Z,101733.38
2023-04-02T04:56:15.988Z,101737.88
2023-04-02T04:59:04.600Z,101740.44
2023-04-02T05:01:47.492Z,101755.44
2023-04-02T05:04:38.191Z,101763.50
2023-04-02T05:07:20.275Z,101767.03
2023-04-02T05:10:13.535Z,101769.19
2023-04-02T05:12:52.546Z,101778.88
2023-04-02T05:15:25.816Z,101771.72
2023-04-02T05:18:08.149Z,101786.31
2023-04-02T05:20:44.993Z,101784.31
2023-04-02T05:23:21.312Z,101797.81
2023-04-02T05:26:22.414Z,101808.88
2023-04-02T05:28:49.864Z,101796.81
2023-04-02T05:31:25.979Z,101799.84
2023-04-02T05:33:55.329Z,101819.63
2023-04-02T05:36:29.231Z,101826.94
2023-04-02T05:38:59.133Z,101839.25
2023-04-02T05:41:36.637Z,101834.16
2023-04-02T05:44:30.292Z,101830.88
2023-04-02T05:47:01.406Z,101850.81
2023-04-02T05:49:47.045Z,101850.22
2023-04-02T05:52:28.567Z,101869.19
2023-04-02T05:55:14.252Z,101875.31
2023-04-02T05:58:06.970Z,101889.13
2023-04-02T06:00:41.047Z,101893.41
2023-04-02T06:03:24.214Z,101909.69
2023-04-02T06:05:53.527Z,101907.06
2023-04-02T06:08:35.219Z,101912.44
2023-04-02T06:11:11.225Z,101916.75
2023-04-02T06:13:39.110Z,101914.69
2023-04-02T06:16:07.743Z,101917.41
2023-04-02T06:18:37.826Z,101940.09
2023-04-02T06:21:06.511Z,101942.75
2023-04-02T06:23:41.301Z,101954.72
2023-04-02T06:26:19.793Z,101955.06
2023-04-02T06:28:56.984Z,101955.47
2023-04-02T06:31:32.437Z,101966.25
2023-04-02T06:34:00.037Z,101973.16
2023-04-02T06:36:28.436Z,101972.56
2023-04-02T06:38:59.968Z,101979.75
2023-04-02T06:41:27.544Z,101974.75
2023-04-02T06:44:03.402Z,101984.31
2023-04-02T06:46:39.266Z,101990.22
2023-04-02T06:49:25.772Z,102005.97
2023-04-02T06:51:56.096Z,101996.78
2023-04-02T06:54:23.919Z,102012.00
2023-04-02T06:56:54.136Z,102014.56
2023-04-02T06:59:21.997Z,102024.59
2023-04-02T07:02:00.265Z,102027.16
2023-04-02T07:04:28.592Z,102031.16
2023-04-02T07:06:56.486Z,102045.00
2023-04-02T07:09:24.073Z,102040.19
2023-04-02T07:11:51.614Z,102051.66
2023-04-02T07:14:19.147Z,102051.44
2023-04-02T07:16:47.171Z,102052.38
2023-04-02T07:19:20.400Z,102057.72
2023-04-02T07:21:48.634Z,102065.50
2023-04-02T07:24:16.384Z,102075.84
2023-04-02T07:26:43.990Z,102082.50
2023-04-02T07:29:16.690Z,102074.38
2023-04-02T07:31:44.702Z,102087.09
2023-04-02T07:34:12.363Z,102082.38
2023-04-02T07:36:39.887Z,102096.41
2023-04-02T07:39:07.442Z,102107.94
2023-04-02T07:41:34.930Z,102111.13
2023-04-02T07:44:02.470Z,102104.84
2023-04-02T07:46:30.088Z,102115.59
2023-04-02T07:48:57.662Z,102118.22
2023-04-02T07:51:27.360Z,102126.19
2023-04-02T07:53:56.059Z,102117.63
2023-04-02T07:56:25.795Z,102144.75
2023-04-02T07:58:53.469Z,102134.34
2023-04-02T08:01:24.003Z,102137.06
2023-04-02T08:03:54.143Z,102142.09
2023-04-02T08:06:22.592Z,102146.06
2023-04-02T08:08:50.806Z,102141.84
2023-04-02T08:11:18.385Z,102147.91
2023-04-02T08:13:46.022Z,102149.44
2023-04-02T08:16:13.780Z,102148.84
2023-04-02T08:18:41.710Z,102168.88
2023-04-02T08:21:11.125Z,102175.75
2023-04-02T08:23:39.306Z,102169.06
2023-04-02T08:26:07.826Z,102190.22
2023-04-02T08:28:35.796Z,102193.63
2023-04-02T08:31:04.723Z,102160.41
2023-04-02T08:33:32.472Z,102197.47
2023-04-02T08:36:00.047Z,102188.25
2023-04-02T08:38:27.640Z,102203.72
2023-04-02T08:41:00.923Z,102210.88
2023-04-02T08:43:54.970Z,102211.47
2023-04-02T08:46:36.502Z,102082.59
2023-04-02T08:49:12.536Z,102219.38
2023-04-02T08:51:40.491Z,102222.13
2023-04-02T08:54:28.048Z,102230.97
2023-04-02T08:57:23.130Z,102237.56
2023-04-02T08:59:55.830Z,102235.13
2023-04-02T09:02:47.909Z,102253.84
2023-04-02T09:05:26.292Z,102251.09
2023-04-02T09:07:55.833Z,102258.34
2023-04-02T09:10:43.280Z,102253.06
2023-04-02T09:13:41.228Z,102264.09
2023-04-02T09:16:11.994Z,102265.09
2023-04-02T09:18:40.356Z,102277.97
2023-04-02T09:21:32.915Z,102283.13
2023-04-02T09:24:00.543Z,102292.66
2023-04-02T09:26:30.735Z,102289.47
2023-04-02T09:29:27.431Z,102281.28
2023-04-02T09:32:19.514Z,102299.59
2023-04-02T09:34:47.289Z,102304.25
2023-04-02T09:37:23.011Z,102311.78
2023-04-02T09:39:50.961Z,102303.28
2023-04-02T09:42:38.193Z,102306.59
2023-04-02T09:45:23.242Z,102304.31
2023-04-02T09:47:53.398Z,102318.91
2023-04-02T09:50:24.236Z,102313.59
2023-04-02T09:52:51.928Z,102315.91
2023-04-02T09:55:31.290Z,102318.56
2023-04-02T09:58:13.845Z,102313.91
2023-04-02T10:00:50.069Z,102318.72
2023-04-02T10:03:29.209Z,102316.22
2023-04-02T10:06:12.168Z,102318.50
2023-04-02T10:08:43.051Z,102318.06
2023-04-02T10:11:18.277Z,102319.13
2023-04-02T10:14:04.572Z,102315.88
2023-04-02T10:16:38.870Z,102315.66
2023-04-02T10:19:38.816Z,102331.69
2023-04-02T10:22:29.080Z,102338.09
2023-04-02T10:24:59.092Z,102333.06
2023-04-02T10:27:38.984Z,102349.78
2023-04-02T10:30:20.249Z,102360.31
2023-04-02T10:33:06.535Z,102347.47
2023-04-02T10:35:59.146Z,102349.03
2023-04-02T10:38:48.909Z,102343.66
2023-04-02T10:41:36.118Z,102349.97
2023-04-02T10:44:19.401Z,102358.78
2023-04-02T10:47:09.122Z,102347.84
2023-04-02T10:49:59.031Z,102358.72
2023-04-02T10:52:41.287Z,102359.50
2023-04-02T10:55:19.058Z,102362.94
2023-04-02T10:57:46.936Z,102347.53
2023-04-02T11:00:16.758Z,102354.47
2023-04-02T11:02:47.429Z,102350.97
2023-04-02T11:05:21.931Z,102356.59
2023-04-02T11:08:01.990Z,102366.31
2023-04-02T11:10:33.288Z,102368.63
2023-04-02T11:13:09.613Z,102387.00
2023-04-02T11:15:38.315Z,102369.28
2023-04-02T11:18:06.323Z,102373.41
2023-04-02T11:20:49.313Z,102396.41
2023-04-02T11:23:21.224Z,102385.72
2023-04-02T11:25:49.627Z,102387.78
2023-04-02T11:28:29.242Z,102396.59
2023-04-02T11:30:58.445Z,102401.13
2023-04-02T11:33:38.096Z,102398.00
2023-04-02T11:36:45.028Z,102406.44
2023-04-02T11:39:17.557Z,102414.34
2023-04-02T11:42:03.663Z,102404.38
2023-04-02T11:44:31.424Z,102404.47
2023-04-02T11:47:19.308Z,102409.84
2023-04-02T11:49:56.269Z,102413.31
2023-04-02T11:52:37.913Z,102426.84
2023-04-02T11:55:27.424Z,102428.84
2023-04-02T11:58:10.472Z,102422.50
2023-04-02T12:00:59.972Z,102436.31
2023-04-02T12:04:06.788Z,102429.78
2023-04-02T12:07:01.559Z,102428.91
2023-04-02T12:09:33.181Z,102416.91
2023-04-02T12:12:03.040Z,102436.22
2023-04-02T12:14:30.673Z,102431.63
2023-04-02T12:16:59.561Z,102427.59
2023-04-02T12:19:30.608Z,102422.53
2023-04-02T12:22:00.529Z,102437.41
2023-04-02T12:24:31.358Z,102433.72
2023-04-02T12:27:22.842Z,102440.59
2023-04-02T12:29:52.308Z,102445.09
2023-04-02T12:32:27.679Z,102446.97
2023-04-02T12:34:58.693Z,102442.22
2023-04-02T12:37:29.174Z,102446.16
2023-04-02T12:40:07.206Z,102453.75
2023-04-02T12:42:38.773Z,102450.56
2023-04-02T12:45:07.675Z,102451.56
2023-04-02T12:47:36.479Z,102433.38
2023-04-02T12:50:04.334Z,102442.53
2023-04-02T12:52:32.646Z,102445.31
2023-04-02T12:55:03.777Z,102448.66
2023-04-02T12:57:36.227Z,102455.72
2023-04-02T13:00:24.562Z,102466.53
2023-04-02T13:03:01.666Z,102457.78
2023-04-02T13:05:45.594Z,102459.06
2023-04-02T13:08:23.899Z,102453.66
2023-04-02T13:11:10.765Z,102447.88
2023-04-02T13:13:41.463Z,102469.09
2023-04-02T13:16:18.203Z,102463.72
2023-04-02T13:18:48.667Z,102452.84
2023-04-02T13:21:16.181Z,102454.72
2023-04-02T13:23:44.549Z,102464.28
2023-04-02T13:26:26.865Z,102467.94
2023-04-02T13:29:01.559Z,102461.75
2023-04-02T13:31:31.517Z,102470.31
2023-04-02T13:34:00.141Z,102463.28
2023-04-02T13:36:29.477Z,102462.50
2023-04-02T13:38:57.419Z,102466.13
2023-04-02T13:41:28.407Z,102468.69
2023-04-02T13:43:57.331Z,102462.75
2023-04-02T13:46:28.084Z,102474.91
2023-04-02T13:48:56.839Z,102478.31
2023-04-02T13:51:39.831Z,102481.00
2023-04-02T13:54:13.932Z,102473.47
2023-04-02T13:56:41.518Z,102480.88
2023-04-02T13:59:09.078Z,102479.84
2023-04-02T14:01:37.442Z,102486.41
2023-04-02T14:04:05.716Z,102483.69
2023-04-02T14:06:43.943Z,102492.16
2023-04-02T14:09:31.055Z,102491.47
2023-04-02T14:12:25.348Z,102492.88
2023-04-02T14:14:59.402Z,102482.19
2023-04-02T14:17:35.774Z,102488.91
2023-04-02T14:20:19.326Z,102481.69
2023-04-02T14:22:55.679Z,102488.19
2023-04-02T14:26:02.663Z,102488.31
2023-04-02T14:28:38.131Z,102502.75
2023-04-02T14:31:16.529Z,102503.13
2023-04-02T14:33:56.725Z,102504.59
2023-04-02T14:36:45.811Z,102515.28
2023-04-02T14:39:46.564Z,102508.06
2023-04-02T14:42:19.728Z,102508.56
2023-04-02T14:45:10.124Z,102524.06
2023-04-02T14:47:47.389Z,102519.03
2023-04-02T14:50:21.070Z,102518.00
2023-04-02T14:52:52.759Z,102530.47
2023-04-02T14:55:38.009Z,102533.06
2023-04-02T14:58:14.928Z,102525.53
2023-04-02T15:00:54.932Z,102526.28
2023-04-02T15:03:25.974Z,102527.28
2023-04-02T15:06:02.995Z,102528.91
2023-04-02T15:08:52.275Z,102529.66
2023-04-02T15:11:31.881Z,102534.03
2023-04-02T15:14:23.582Z,102532.16
2023-04-02T15:16:51.488Z,102532.03
2023-04-02T15:19:20.486Z,102542.88
2023-04-02T15:22:09.682Z,102550.94
2023-04-02T15:24:52.073Z,102554.06
2023-04-02T15:27:25.945Z,102549.03
2023-04-02T15:30:09.452Z,102548.72
2023-04-02T15:32:39.878Z,102549.59
2023-04-02T15:35:18.696Z,102544.31
2023-04-02T15:37:55.070Z,102550.63
2023-04-02T15:40:28.325Z,102553.44
2023-04-02T15:43:19.816Z,102535.13
2023-04-02T15:46:07.295Z,102542.84
2023-04-02T15:49:01.225Z,102551.44
2023-04-02T15:51:50.264Z,102552.06
2023-04-02T15:54:38.552Z,102564.25
2023-04-02T15:57:14.913Z,102563.28
2023-04-02T15:59:48.665Z,102565.19
2023-04-02T16:02:26.618Z,102575.38
2023-04-02T16:05:21.482Z,102563.22
2023-04-02T16:07:57.845Z,102571.22
2023-04-02T16:10:41.231Z,102574.00
2023-04-02T16:13:31.570Z,102579.91
2023-04-02T16:16:17.259Z,102579.25
2023-04-02T16:19:03.601Z,102576.09
2023-04-02T16:21:39.491Z,102587.44
2023-04-02T16:24:13.786Z,102591.94
2023-04-02T16:27:18.943Z,102592.69
2023-04-02T16:30:05.024Z,102596.41
2023-04-02T16:32:49.338Z,102596.53
2023-04-02T16:35:42.639Z,102603.41
2023-04-02T16:38:44.678Z,102602.75
2023-04-02T16:41:28.681Z,102609.28
2023-04-02T16:44:25.905Z,102613.38
2023-04-02T16:47:11.006Z,102615.34
2023-04-02T16:49:48.455Z,102618.75
2023-04-02T16:52:47.064Z,102617.59
2023-04-02T16:55:42.102Z,102630.16
2023-04-02T16:58:40.125Z,102637.66
2023-04-02T17:01:27.236Z,102639.25
2023-04-02T17:04:09.226Z,102650.31
2023-04-02T17:06:42.275Z,102640.13
2023-04-02T17:09:17.406Z,102644.41
2023-04-02T17:11:57.945Z,102651.38
2023-04-02T17:14:32.633Z,102655.56
2023-04-02T17:17:03.555Z,102660.66
2023-04-02T17:19:32.477Z,102656.88
2023-04-02T17:22:05.564Z,102668.13
2023-04-02T17:24:37.335Z,102663.38
2023-04-02T17:27:07.608Z,102667.34
2023-04-02T17:29:42.069Z,102674.81
2023-04-02T17:32:19.219Z,102675.78
2023-04-02T17:34:46.715Z,102679.63
2023-04-02T17:37:14.252Z,102688.63
2023-04-02T17:39:57.507Z,102689.44
2023-04-02T17:42:48.066Z,102689.09
2023-04-02T17:45:21.776Z,102691.88
2023-04-02T17:48:10.660Z,102701.22
2023-04-02T17:50:50.322Z,102706.88
2023-04-02T17:53:31.294Z,102709.56
2023-04-02T17:56:10.962Z,102714.63
2023-04-02T17:58:56.093Z,102707.72
2023-04-02T18:01:36.087Z,102711.75
2023-04-02T18:04:26.898Z,102727.19
2023-04-02T18:07:27.668Z,102728.69
2023-04-02T18:10:15.428Z,102745.41
2023-04-02T18:12:57.108Z,102737.75
2023-04-02T18:15:43.421Z,102750.75
2023-04-02T18:18:29.395Z,102746.63
2023-04-02T18:21:05.778Z,102753.06
2023-04-02T18:23:55.795Z,102760.22
2023-04-02T18:26:33.785Z,102765.91
2023-04-02T18:29:22.991Z,102766.09
2023-04-02T18:32:13.958Z,102773.91
2023-04-02T18:35:01.344Z,102778.66
2023-04-02T18:37:34.828Z,102778.66
2023-04-02T18:40:26.988Z,102776.97
2023-04-02T18:43:13.479Z,102791.78
2023-04-02T18:45:59.654Z,102794.59
2023-04-02T18:48:50.793Z,102792.75
2023-04-02T18:51:23.061Z,102802.78
2023-04-02T18:53:56.359Z,102816.44
2023-04-02T18:56:25.572Z,102816.78
2023-04-02T18:59:03.169Z,102816.59
2023-04-02T19:01:39.938Z,102822.06
2023-04-02T19:04:13.831Z,102817.44
2023-04-02T19:06:56.380Z,102828.59
2023-04-02T19:09:35.197Z,102840.31
2023-04-02T19:12:05.541Z,102839.81
2023-04-02T19:14:33.077Z,102839.25
2023-04-02T19:17:27.342Z,102836.72
2023-04-02T19:20:19.622Z,102857.72
2023-04-02T19:23:22.569Z,102857.03
2023-04-02T19:26:02.548Z,102855.09
2023-04-02T19:28:57.902Z,102851.88
2023-04-02T19:31:25.395Z,102854.78
2023-04-02T19:33:52.855Z,102862.16
2023-04-02T19:36:44.886Z,102867.00
2023-04-02T19:39:33.840Z,102868.38
2023-04-02T19:42:23.176Z,102863.53
2023-04-02T19:44:53.635Z,102874.53
2023-04-02T19:47:21.837Z,102869.75
2023-04-02T19:49:49.585Z,102875.88
2023-04-02T19:52:17.477Z,102875.00
2023-04-02T19:54:45.027Z,102857.66
2023-04-02T19:57:15.502Z,102878.13
2023-04-02T19:59:43.080Z,102895.91
2023-04-02T20:02:12.042Z,102879.47
2023-04-02T20:04:39.602Z,102894.81
2023-04-02T20:07:07.204Z,102892.91
2023-04-02T20:09:34.743Z,102892.88
2023-04-02T20:12:02.224Z,102897.41
2023-04-02T20:14:29.830Z,102902.72
2023-04-02T20:16:57.635Z,102902.06
2023-04-02T20:19:25.236Z,102902.22
2023-04-02T20:21:52.809Z,102905.88
2023-04-02T20:24:20.424Z,102899.56
2023-04-02T20:26:47.956Z,102911.25
2023-04-02T20:29:15.524Z,102922.38
2023-04-02T20:31:42.986Z,102922.84
2023-04-02T20:34:11.121Z,102927.88
2023-04-02T20:36:38.813Z,102925.59
2023-04-02T20:39:07.867Z,102930.00
2023-04-02T20:41:35.559Z,102923.81
2023-04-02T20:44:03.181Z,102939.75
2023-04-02T20:46:30.744Z,102937.44
2023-04-02T20:48:58.620Z,102944.28
2023-04-02T20:51:26.483Z,102952.97
2023-04-02T20:53:55.295Z,102947.75
2023-04-02T20:56:24.346Z,102949.31
2023-04-02T20:58:52.635Z,102954.81
2023-04-02T21:01:25.870Z,102945.47
2023-04-02T21:03:58.291Z,102961.47
2023-04-02T21:06:26.915Z,102962.41
2023-04-02T21:08:54.574Z,102960.63
2023-04-02T21:11:22.563Z,102967.16
2023-04-02T21:13:50.918Z,102965.09
2023-04-02T21:16:22.518Z,102970.94
2023-04-02T21:18:52.368Z,102981.31
2023-04-02T21:21:22.019Z,102987.25
2023-04-02T21:23:54.625Z,102969.97
2023-04-02T21:26:22.441Z,102995.69
2023-04-02T21:28:50.420Z,102989.72
2023-04-02T21:31:20.920Z,102989.00
2023-04-02T21:33:57.212Z,102996.50
2023-04-02T21:36:30.358Z,102988.81
2023-04-02T21:39:00.410Z,102994.31
2023-04-02T21:41:36.240Z,102993.88
2023-04-02T21:44:06.112Z,102991.63
2023-04-02T21:46:37.313Z,102993.28
2023-04-02T21:49:05.972Z,102991.81
2023-04-02T21:51:35.165Z,102988.22
2023-04-02T21:54:03.317Z,102991.88
2023-04-02T21:56:36.811Z,102996.25
2023-04-02T21:59:06.134Z,102993.78
2023-04-02T22:01:36.754Z,102993.50
2023-04-02T22:04:06.555Z,102989.38
2023-04-02T22:06:39.959Z,102985.97
2023-04-02T22:09:10.826Z,102997.56
2023-04-02T22:11:42.204Z,102999.66
2023-04-02T22:14:10.325Z,102992.84
2023-04-02T22:16:39.222Z,102994.59
2023-04-02T22:19:09.528Z,103006.34
2023-04-02T22:21:37.828Z,103001.88
2023-04-02T22:24:09.060Z,102993.41
2023-04-02T22:26:37.103Z,103001.06
2023-04-02T22:29:05.238Z,103003.53
2023-04-02T22:31:35.141Z,103000.22
2023-04-02T22:34:04.344Z,103001.63
2023-04-02T22:36:32.206Z,103000.25
2023-04-02T22:39:00.310Z,103001.03
2023-04-02T22:41:31.932Z,103008.72
2023-04-02T22:44:00.948Z,103010.34
2023-04-02T22:46:30.228Z,103008.84
2023-04-02T22:48:58.656Z,103015.31
2023-04-02T22:51:27.542Z,103017.66
2023-04-02T22:53:56.641Z,103011.03
2023-04-02T22:56:27.637Z,103023.88
2023-04-02T22:58:55.331Z,103023.78
2023-04-02T23:01:30.740Z,103020.25
2023-04-02T23:03:58.449Z,103027.94
2023-04-02T23:06:26.586Z,103023.47
2023-04-02T23:08:54.500Z,103019.94
2023-04-02T23:11:24.643Z,103022.66
2023-04-02T23:13:54.161Z,103024.56
2023-04-02T23:16:22.865Z,103023.00
2023-04-02T23:18:51.290Z,103027.38
2023-04-02T23:21:20.089Z,103032.00
2023-04-02T23:23:48.595Z,103030.28
2023-04-02T23:26:19.198Z,103028.44
2023-04-02T23:28:46.879Z,103031.22
2023-04-02T23:31:20.931Z,103023.84
2023-04-02T23:33:48.854Z,103025.28
2023-04-02T23:36:29.232Z,103036.94
2023-04-02T23:39:01.107Z,103039.78
2023-04-02T23:41:29.766Z,103040.03
2023-04-02T23:43:58.526Z,103040.97
2023-04-02T23:46:26.759Z,103036.72
2023-04-02T23:48:55.547Z,103028.97
2023-04-02T23:51:24.383Z,103036.66
2023-04-02T23:53:52.852Z,103029.53
2023-04-02T23:56:21.668Z,103048.88
2023-04-02T23:58:50.466Z,103050.94
